Time;durP1;ratioP1;P1;durP2;ratioP2;P2;SDS_P1;SDS_P2;PMS_P1;PMS_P2;Temp;Humidity;BMP_temperature;BMP_pressure;BME280_temperature;BME280_humidity;BME280_pressure;Samples;Min_cycle;Max_cycle;Signal;HPM_P1;HPM_P2
2022/05/19 00:02:08;;;;;;;;;;;22.70;95.90;;;;;;4317187;33;43950;-78
2022/05/19 00:04:41;;;;;;;;;;;22.60;95.90;;;;;;4330314;33;43630;-78
2022/05/19 00:07:14;;;;;;;;;;;22.60;95.80;;;;;;4317152;33;42637;-79
2022/05/19 00:09:42;;;;;;;;;;;22.60;95.70;;;;;;4317709;33;43225;-78
2022/05/19 00:12:20;;;;;;;;;;;22.60;95.70;;;;;;4330258;33;43445;-78
2022/05/19 00:14:53;;;;;;;;;;;22.60;95.40;;;;;;4330719;33;43855;-78
2022/05/19 00:17:29;;;;;;;;;;;22.60;95.50;;;;;;4330520;33;43925;-78
2022/05/19 00:20:01;;;;;;;;;;;22.60;95.70;;;;;;4330646;33;42585;-78
2022/05/19 00:22:34;;;;;;;;;;;22.50;95.50;;;;;;4330733;33;43099;-78
2022/05/19 00:25:09;;;;;;;;;;;22.60;95.40;;;;;;4330470;33;42841;-78
2022/05/19 00:27:45;;;;;;;;;;;22.50;95.30;;;;;;4318110;33;20001;-78
2022/05/19 00:30:17;;;;;;;;;;;22.50;95.30;;;;;;4330708;33;45833;-78
2022/05/19 00:32:53;;;;;;;;;;;22.50;95.30;;;;;;4330283;33;44180;-79
2022/05/19 00:35:20;;;;;;;;;;;22.50;95.20;;;;;;4330450;33;43636;-79
2022/05/19 00:37:55;;;;;;;;;;;22.50;95.00;;;;;;4317395;33;43687;-78
2022/05/19 00:40:23;;;;;;;;;;;22.50;95.00;;;;;;4330524;33;43627;-78
2022/05/19 00:42:56;;;;;;;;;;;22.50;94.80;;;;;;4317345;33;43095;-78
2022/05/19 00:45:52;;;;;;;;;;;22.50;94.80;;;;;;4330580;33;43866;-78
2022/05/19 00:48:26;;;;;;;;;;;22.50;94.80;;;;;;4329917;33;43498;-78
2022/05/19 00:50:57;;;;;;;;;;;22.50;94.80;;;;;;4316850;33;42891;-78
2022/05/19 00:53:35;;;;;;;;;;;22.50;94.00;;;;;;4329875;33;45985;-78
2022/05/19 00:56:05;;;;;;;;;;;22.50;94.60;;;;;;4329965;33;44348;-78
2022/05/19 00:58:40;;;;;;;;;;;22.50;94.10;;;;;;4317116;33;42490;-78
2022/05/19 01:01:18;;;;;;;;;;;22.50;93.90;;;;;;4317225;33;43039;-78
2022/05/19 01:03:54;;;;;;;;;;;22.50;93.60;;;;;;4317317;33;43915;-78
2022/05/19 01:06:26;;;;;;;;;;;22.40;93.70;;;;;;4331162;33;43370;-78
2022/05/19 01:09:07;;;;;;;;;;;22.50;93.70;;;;;;4319871;33;43154;-78
2022/05/19 01:11:38;;;;;;;;;;;22.50;93.40;;;;;;4333124;33;43542;-78
2022/05/19 01:14:09;;;;;;;;;;;22.50;93.30;;;;;;4333026;33;44771;-78
2022/05/19 01:16:42;;;;;;;;;;;22.50;93.20;;;;;;4320207;33;43039;-78
2022/05/19 01:19:30;;;;;;;;;;;22.50;93.00;;;;;;4319360;33;44224;-77
2022/05/19 01:22:17;;;;;;;;;;;22.40;93.50;;;;;;4319743;33;43468;-78
2022/05/19 01:24:52;;;;;;;;;;;22.50;92.90;;;;;;4319392;33;44207;-78
2022/05/19 01:27:19;;;;;;;;;;;22.50;93.10;;;;;;4319581;33;42096;-77
2022/05/19 01:29:54;;;;;;;;;;;22.50;92.50;;;;;;4319695;33;43895;-78
2022/05/19 01:32:23;;;;;;;;;;;22.50;92.60;;;;;;4319825;33;43092;-77
2022/05/19 01:34:56;;;;;;;;;;;22.50;92.90;;;;;;4332651;33;46310;-78
2022/05/19 01:37:29;;;;;;;;;;;22.50;92.40;;;;;;4332349;33;42583;-77
2022/05/19 01:40:06;;;;;;;;;;;22.40;92.60;;;;;;4319375;33;42087;-77
2022/05/19 01:42:40;;;;;;;;;;;22.50;92.90;;;;;;4319539;33;45984;-78
2022/05/19 01:45:13;;;;;;;;;;;22.50;92.70;;;;;;4332540;33;42839;-76
2022/05/19 01:47:42;;;;;;;;;;;22.50;91.90;;;;;;4332858;33;43365;-78
2022/05/19 01:50:14;;;;;;;;;;;22.50;92.40;;;;;;4332807;33;42812;-77
2022/05/19 01:52:49;;;;;;;;;;;22.50;92.00;;;;;;4319334;33;45977;-79
2022/05/19 01:55:37;;;;;;;;;;;22.50;92.00;;;;;;4319244;33;44126;-78
2022/05/19 01:58:17;;;;;;;;;;;22.50;92.50;;;;;;4323997;33;42201;-79
2022/05/19 02:00:55;;;;;;;;;;;22.50;91.10;;;;;;4332068;33;42434;-78
2022/05/19 02:03:36;;;;;;;;;;;22.50;92.40;;;;;;4332236;33;42626;-77
2022/05/19 02:06:18;;;;;;;;;;;22.40;91.50;;;;;;4319093;33;44041;-78
2022/05/19 02:08:49;;;;;;;;;;;22.50;91.60;;;;;;4331873;33;43426;-78
2022/05/19 02:11:20;;;;;;;;;;;22.50;91.10;;;;;;4319276;33;43781;-78
2022/05/19 02:13:47;;;;;;;;;;;22.50;91.40;;;;;;4332124;33;43611;-78
2022/05/19 02:16:18;;;;;;;;;;;22.40;91.10;;;;;;4331555;33;44293;-77
2022/05/19 02:18:49;;;;;;;;;;;22.40;91.00;;;;;;4318172;33;44299;-79
2022/05/19 02:21:20;;;;;;;;;;;22.50;91.60;;;;;;4331944;33;43905;-79
2022/05/19 02:23:59;;;;;;;;;;;22.40;90.90;;;;;;4318869;33;43815;-77
2022/05/19 02:26:36;;;;;;;;;;;22.40;91.40;;;;;;4331886;33;42685;-79
2022/05/19 02:29:11;;;;;;;;;;;22.40;91.40;;;;;;4320081;33;20029;-76
2022/05/19 02:31:45;;;;;;;;;;;22.40;90.90;;;;;;4331723;33;43474;-78
2022/05/19 02:34:15;;;;;;;;;;;22.40;91.50;;;;;;4332322;33;43042;-78
2022/05/19 02:36:44;;;;;;;;;;;22.40;91.30;;;;;;4331459;33;43012;-78
2022/05/19 02:39:14;;;;;;;;;;;22.40;91.20;;;;;;4318804;33;43827;-79
2022/05/19 02:41:52;;;;;;;;;;;22.40;91.80;;;;;;4331388;33;43242;-78
2022/05/19 02:44:24;;;;;;;;;;;22.40;91.30;;;;;;4331422;33;42738;-79
2022/05/19 02:46:54;;;;;;;;;;;22.40;91.10;;;;;;4318681;33;44778;-79
2022/05/19 02:49:22;;;;;;;;;;;22.40;90.90;;;;;;4331752;33;44225;-79
2022/05/19 02:51:52;;;;;;;;;;;22.40;91.20;;;;;;4318718;33;42895;-78
2022/05/19 02:54:25;;;;;;;;;;;22.40;90.60;;;;;;4317927;33;43525;-79
2022/05/19 02:56:52;;;;;;;;;;;22.40;91.20;;;;;;4331940;33;43404;-78
2022/05/19 02:59:19;;;;;;;;;;;22.40;91.40;;;;;;4331310;33;43191;-78
2022/05/19 03:01:51;;;;;;;;;;;22.40;90.80;;;;;;4330852;33;43168;-78
2022/05/19 03:04:21;;;;;;;;;;;22.40;90.90;;;;;;4318491;33;43478;-77
2022/05/19 03:06:52;;;;;;;;;;;22.40;90.90;;;;;;4331398;33;43373;-77
2022/05/19 03:09:21;;;;;;;;;;;22.40;90.50;;;;;;4331335;33;42195;-78
2022/05/19 03:11:56;;;;;;;;;;;22.40;90.50;;;;;;4331141;33;42489;-78
2022/05/19 03:14:32;;;;;;;;;;;22.30;90.40;;;;;;4330964;33;42723;-79
2022/05/19 03:17:04;;;;;;;;;;;22.30;90.70;;;;;;4331324;33;42126;-78
2022/05/19 03:19:31;;;;;;;;;;;22.30;90.70;;;;;;4331360;33;43989;-78
2022/05/19 03:22:03;;;;;;;;;;;22.30;91.10;;;;;;4330995;33;43018;-78
2022/05/19 03:24:34;;;;;;;;;;;22.30;90.60;;;;;;4331076;33;42522;-78
2022/05/19 03:27:01;;;;;;;;;;;22.30;90.40;;;;;;4317877;33;42883;-79
2022/05/19 03:29:39;;;;;;;;;;;22.30;90.60;;;;;;4331645;33;20048;-78
2022/05/19 03:32:06;;;;;;;;;;;22.30;90.20;;;;;;4331271;33;44215;-78
2022/05/19 03:34:39;;;;;;;;;;;22.30;90.60;;;;;;4317958;33;43030;-78
2022/05/19 03:37:14;;;;;;;;;;;22.30;91.10;;;;;;4330524;33;42841;-77
2022/05/19 03:39:46;;;;;;;;;;;22.30;90.60;;;;;;4330917;33;43257;-77
2022/05/19 03:42:13;;;;;;;;;;;22.30;90.90;;;;;;4317977;33;44273;-78
2022/05/19 03:44:49;;;;;;;;;;;22.20;91.00;;;;;;4317408;33;42657;-78
2022/05/19 03:47:21;;;;;;;;;;;22.30;90.70;;;;;;4317410;33;43615;-78
2022/05/19 03:49:55;;;;;;;;;;;22.20;90.90;;;;;;4317625;33;43426;-78
2022/05/19 03:52:27;;;;;;;;;;;22.30;90.70;;;;;;4317509;33;43902;-78
2022/05/19 03:55:03;;;;;;;;;;;22.20;91.40;;;;;;4330648;33;42057;-77
2022/05/19 03:57:33;;;;;;;;;;;22.30;91.50;;;;;;4330929;33;43282;-77
2022/05/19 04:00:04;;;;;;;;;;;22.30;91.70;;;;;;4318210;33;20493;-78
2022/05/19 04:02:32;;;;;;;;;;;22.20;91.30;;;;;;4330269;33;42714;-76
2022/05/19 04:05:10;;;;;;;;;;;22.20;91.30;;;;;;4330794;33;43120;-76
2022/05/19 04:07:40;;;;;;;;;;;22.20;91.20;;;;;;4317320;33;43212;-76
2022/05/19 04:10:11;;;;;;;;;;;22.20;91.50;;;;;;4317386;33;43660;-77
2022/05/19 04:12:52;;;;;;;;;;;22.20;91.10;;;;;;4317128;33;43587;-77
2022/05/19 04:15:25;;;;;;;;;;;22.20;91.70;;;;;;4330729;33;43469;-76
2022/05/19 04:18:00;;;;;;;;;;;22.20;91.30;;;;;;4317175;33;43619;-76
2022/05/19 04:20:36;;;;;;;;;;;22.20;91.30;;;;;;4317726;33;43187;-76
2022/05/19 04:23:05;;;;;;;;;;;22.20;91.70;;;;;;4317245;33;42150;-76
2022/05/19 04:25:40;;;;;;;;;;;22.20;91.40;;;;;;4317802;33;43921;-77
2022/05/19 04:28:07;;;;;;;;;;;22.20;91.70;;;;;;4330496;33;45713;-76
2022/05/19 04:30:43;;;;;;;;;;;22.20;91.70;;;;;;4318640;33;20343;-76
2022/05/19 04:33:16;;;;;;;;;;;22.20;91.90;;;;;;4330078;33;42517;-76
2022/05/19 04:35:44;;;;;;;;;;;22.20;91.90;;;;;;4317551;33;43444;-76
2022/05/19 04:38:15;;;;;;;;;;;22.10;91.90;;;;;;4329975;33;43120;-76
2022/05/19 04:40:47;;;;;;;;;;;22.20;92.10;;;;;;4330463;33;43226;-76
2022/05/19 04:43:19;;;;;;;;;;;22.10;92.20;;;;;;4320417;33;43817;-76
2022/05/19 04:45:53;;;;;;;;;;;22.10;92.10;;;;;;4333558;33;44279;-76
2022/05/19 04:48:29;;;;;;;;;;;22.10;92.40;;;;;;4333508;33;45579;-76
2022/05/19 04:50:59;;;;;;;;;;;22.10;92.50;;;;;;4333489;33;43897;-76
2022/05/19 04:53:26;;;;;;;;;;;22.10;92.30;;;;;;4332890;33;42884;-76
2022/05/19 04:55:59;;;;;;;;;;;22.10;92.50;;;;;;4332789;33;43135;-76
2022/05/19 04:58:26;;;;;;;;;;;22.10;92.60;;;;;;4333499;33;44787;-76
2022/05/19 05:00:55;;;;;;;;;;;22.10;92.70;;;;;;4333114;33;42853;-76
2022/05/19 05:03:31;;;;;;;;;;;22.00;92.80;;;;;;4319954;33;42530;-76
2022/05/19 05:06:01;;;;;;;;;;;22.00;92.80;;;;;;4333145;33;44617;-76
2022/05/19 05:08:31;;;;;;;;;;;22.10;93.40;;;;;;4333259;33;43679;-76
2022/05/19 05:11:04;;;;;;;;;;;22.00;93.30;;;;;;4332881;33;42803;-76
2022/05/19 05:13:36;;;;;;;;;;;22.10;93.30;;;;;;4332686;33;43626;-76
2022/05/19 05:16:11;;;;;;;;;;;22.10;93.40;;;;;;4333007;33;42830;-76
2022/05/19 05:18:41;;;;;;;;;;;22.10;93.40;;;;;;4332969;33;43176;-76
2022/05/19 05:21:13;;;;;;;;;;;22.10;93.50;;;;;;4319482;33;43944;-76
2022/05/19 05:23:43;;;;;;;;;;;22.00;93.60;;;;;;4333239;33;43095;-77
2022/05/19 05:26:16;;;;;;;;;;;22.00;93.80;;;;;;4319621;33;43671;-76
2022/05/19 05:28:49;;;;;;;;;;;22.10;93.80;;;;;;4319715;33;44249;-76
2022/05/19 05:31:18;;;;;;;;;;;22.10;93.90;;;;;;4333672;33;20005;-76
2022/05/19 05:33:51;;;;;;;;;;;22.10;94.00;;;;;;4332308;33;44191;-76
2022/05/19 05:36:21;;;;;;;;;;;22.10;94.00;;;;;;4332322;33;43196;-76
2022/05/19 05:38:51;;;;;;;;;;;22.10;94.10;;;;;;4318908;33;44588;-76
2022/05/19 05:41:21;;;;;;;;;;;22.10;94.10;;;;;;4319886;33;43258;-76
2022/05/19 05:43:51;;;;;;;;;;;22.10;94.30;;;;;;4332171;33;43474;-76
2022/05/19 05:46:18;;;;;;;;;;;22.10;94.30;;;;;;4332413;33;42823;-76
2022/05/19 05:48:52;;;;;;;;;;;22.10;94.20;;;;;;4319239;33;43155;-76
2022/05/19 05:51:19;;;;;;;;;;;22.10;94.10;;;;;;4332637;33;43728;-76
2022/05/19 05:53:54;;;;;;;;;;;22.10;94.10;;;;;;4319225;33;43086;-76
2022/05/19 05:56:22;;;;;;;;;;;22.20;94.40;;;;;;4332195;33;41977;-76
2022/05/19 05:58:54;;;;;;;;;;;22.10;94.50;;;;;;4331955;33;43050;-76
2022/05/19 06:01:22;;;;;;;;;;;22.20;94.70;;;;;;4332792;33;19997;-76
2022/05/19 06:03:52;;;;;;;;;;;22.20;94.80;;;;;;4319547;33;43110;-75
2022/05/19 06:06:25;;;;;;;;;;;22.20;94.80;;;;;;4332116;33;42095;-76
2022/05/19 06:08:55;;;;;;;;;;;22.10;94.80;;;;;;4318741;33;42839;-76
2022/05/19 06:11:29;;;;;;;;;;;22.20;94.90;;;;;;4332537;33;44864;-76
2022/05/19 06:13:56;;;;;;;;;;;22.20;95.00;;;;;;4319094;33;44342;-76
2022/05/19 06:16:28;;;;;;;;;;;22.20;95.10;;;;;;4331748;33;43272;-76
2022/05/19 06:18:58;;;;;;;;;;;22.20;95.10;;;;;;4332131;33;43148;-76
2022/05/19 06:21:34;;;;;;;;;;;22.20;95.20;;;;;;4332283;33;43641;-76
2022/05/19 06:24:02;;;;;;;;;;;22.20;95.20;;;;;;4331700;33;43619;-76
2022/05/19 06:26:32;;;;;;;;;;;22.20;95.10;;;;;;4331584;33;43641;-76
2022/05/19 06:29:02;;;;;;;;;;;22.20;95.20;;;;;;4318564;33;44017;-76
2022/05/19 06:31:31;;;;;;;;;;;22.30;95.70;;;;;;4319844;33;20006;-76
2022/05/19 06:34:01;;;;;;;;;;;22.30;95.30;;;;;;4332265;33;45770;-76
2022/05/19 06:36:29;;;;;;;;;;;22.30;95.30;;;;;;4318575;33;43885;-76
2022/05/19 06:39:05;;;;;;;;;;;22.30;95.30;;;;;;4331872;33;44929;-76
2022/05/19 06:44:24;;;;;;;;;;;22.30;95.30;;;;;;4331856;33;45763;-76
2022/05/19 06:46:59;;;;;;;;;;;22.30;95.30;;;;;;4331807;33;46024;-76
2022/05/19 06:49:27;;;;;;;;;;;22.30;95.20;;;;;;4318267;33;42434;-76
2022/05/19 06:52:00;;;;;;;;;;;22.30;95.20;;;;;;4331740;33;44183;-76
2022/05/19 06:54:36;;;;;;;;;;;22.30;95.60;;;;;;4318101;33;42498;-75
2022/05/19 06:57:05;;;;;;;;;;;22.30;95.20;;;;;;4331820;33;43656;-76
2022/05/19 06:59:36;;;;;;;;;;;22.30;95.20;;;;;;4331765;33;42980;-76
2022/05/19 07:02:07;;;;;;;;;;;22.30;95.30;;;;;;4331225;33;43625;-76
2022/05/19 07:04:34;;;;;;;;;;;22.30;95.20;;;;;;4331074;33;45022;-76
2022/05/19 07:07:04;;;;;;;;;;;22.30;95.20;;;;;;4318206;33;43615;-76
2022/05/19 07:09:38;;;;;;;;;;;22.30;95.30;;;;;;4331093;33;43822;-76
2022/05/19 07:12:11;;;;;;;;;;;22.30;95.30;;;;;;4318355;33;45804;-76
2022/05/19 07:14:44;;;;;;;;;;;22.30;95.30;;;;;;4317828;33;43062;-76
2022/05/19 07:17:17;;;;;;;;;;;22.30;95.30;;;;;;4331440;33;41887;-76
2022/05/19 07:22:33;;;;;;;;;;;22.30;95.30;;;;;;4331000;33;43849;-76
2022/05/19 07:25:04;;;;;;;;;;;22.30;95.20;;;;;;4330849;33;42982;-76
2022/05/19 07:27:38;;;;;;;;;;;22.30;95.20;;;;;;4331334;33;43113;-76
2022/05/19 07:30:11;;;;;;;;;;;22.30;95.30;;;;;;4330923;33;42194;-76
2022/05/19 07:32:44;;;;;;;;;;;22.40;95.30;;;;;;4332046;33;20416;-76
2022/05/19 07:35:14;;;;;;;;;;;22.30;95.30;;;;;;4318123;33;43091;-76
2022/05/19 07:37:47;;;;;;;;;;;22.40;95.40;;;;;;4318009;33;44781;-76
2022/05/19 07:40:17;;;;;;;;;;;22.40;95.50;;;;;;4331163;33;43467;-76
2022/05/19 07:42:50;;;;;;;;;;;22.30;95.40;;;;;;4330589;33;43561;-77
2022/05/19 07:45:21;;;;;;;;;;;22.40;95.40;;;;;;4331249;33;44115;-76
2022/05/19 07:47:48;;;;;;;;;;;22.40;95.30;;;;;;4317548;33;42782;-77
2022/05/19 07:50:15;;;;;;;;;;;22.40;95.40;;;;;;4330774;33;42371;-77
2022/05/19 07:52:45;;;;;;;;;;;22.40;95.10;;;;;;4317294;33;43654;-77
2022/05/19 07:55:17;;;;;;;;;;;22.40;95.10;;;;;;4330833;33;44215;-76
2022/05/19 07:57:47;;;;;;;;;;;22.40;94.90;;;;;;4330804;33;45744;-77
2022/05/19 08:00:17;;;;;;;;;;;22.40;94.80;;;;;;4330348;33;44783;-76
2022/05/19 08:02:50;;;;;;;;;;;22.40;94.80;;;;;;4318363;33;20048;-76
2022/05/19 08:05:22;;;;;;;;;;;22.40;94.70;;;;;;4330296;33;42832;-77
2022/05/19 08:07:54;;;;;;;;;;;22.40;94.80;;;;;;4330749;33;43012;-76
2022/05/19 08:10:25;;;;;;;;;;;22.40;94.60;;;;;;4330513;33;43173;-76
2022/05/19 08:15:44;;;;;;;;;;;22.50;94.70;;;;;;4329647;33;44038;-76
2022/05/19 08:18:14;;;;;;;;;;;22.50;94.70;;;;;;4330655;33;43180;-76
2022/05/19 08:20:48;;;;;;;;;;;22.40;94.50;;;;;;4330264;33;42017;-76
2022/05/19 08:23:18;;;;;;;;;;;22.50;94.40;;;;;;4317614;33;43707;-76
2022/05/19 08:25:46;;;;;;;;;;;22.50;94.60;;;;;;4317570;33;44112;-76
2022/05/19 08:28:19;;;;;;;;;;;22.50;94.70;;;;;;4330031;33;42865;-76
2022/05/19 08:30:49;;;;;;;;;;;22.50;94.70;;;;;;4330315;33;42966;-77
2022/05/19 08:33:17;;;;;;;;;;;22.50;94.80;;;;;;4330511;33;42096;-77
2022/05/19 08:35:49;;;;;;;;;;;22.50;94.70;;;;;;4317393;33;43037;-76
2022/05/19 08:38:17;;;;;;;;;;;22.50;94.40;;;;;;4317414;33;45551;-77
2022/05/19 08:41:10;;;;;;;;;;;22.50;94.40;;;;;;4330033;33;44111;-76
2022/05/19 08:43:40;;;;;;;;;;;22.50;94.40;;;;;;4316562;33;44820;-77
2022/05/19 08:46:17;;;;;;;;;;;22.50;94.50;;;;;;4317627;33;43087;-77
2022/05/19 08:48:48;;;;;;;;;;;22.50;94.40;;;;;;4330359;33;43379;-77
2022/05/19 08:51:16;;;;;;;;;;;22.60;94.20;;;;;;4330380;33;45828;-77
2022/05/19 08:53:53;;;;;;;;;;;22.60;94.30;;;;;;4317780;33;42675;-77
2022/05/19 08:56:35;;;;;;;;;;;22.60;94.20;;;;;;4316977;33;43508;-77
2022/05/19 08:59:28;;;;;;;;;;;22.60;94.20;;;;;;4317193;33;45772;-77
2022/05/19 09:02:25;;;;;;;;;;;22.60;94.10;;;;;;4330077;33;44616;-77
2022/05/19 09:05:07;;;;;;;;;;;22.70;94.20;;;;;;4311410;33;20067;-76
2022/05/19 09:07:58;;;;;;;;;;;22.70;94.40;;;;;;4330351;33;43191;-77
2022/05/19 09:10:34;;;;;;;;;;;22.70;94.20;;;;;;4317054;33;42343;-77
2022/05/19 09:13:17;;;;;;;;;;;22.70;94.10;;;;;;4329882;33;43220;-77
2022/05/19 09:15:52;;;;;;;;;;;22.70;94.00;;;;;;4330406;33;44102;-77
2022/05/19 09:18:32;;;;;;;;;;;22.70;94.00;;;;;;4330242;33;44167;-77
2022/05/19 09:21:01;;;;;;;;;;;22.80;94.00;;;;;;4329862;33;45083;-77
2022/05/19 09:23:35;;;;;;;;;;;22.80;93.90;;;;;;4329853;33;42528;-77
2022/05/19 09:26:13;;;;;;;;;;;22.80;94.00;;;;;;4317333;33;44910;-77
2022/05/19 09:28:44;;;;;;;;;;;22.80;93.80;;;;;;4332443;33;43820;-77
2022/05/19 09:31:31;;;;;;;;;;;22.80;93.80;;;;;;4332950;33;44191;-77
2022/05/19 09:34:02;;;;;;;;;;;22.80;94.00;;;;;;4332709;33;44189;-77
2022/05/19 09:36:41;;;;;;;;;;;22.90;93.80;;;;;;4320035;33;44106;-78
2022/05/19 09:39:15;;;;;;;;;;;22.90;93.80;;;;;;4319658;33;44266;-76
2022/05/19 09:41:45;;;;;;;;;;;22.90;94.20;;;;;;4332905;33;43758;-78
2022/05/19 09:44:14;;;;;;;;;;;23.00;94.20;;;;;;4319233;33;42456;-76
2022/05/19 09:46:47;;;;;;;;;;;23.00;94.30;;;;;;4319208;33;44290;-77
2022/05/19 09:49:29;;;;;;;;;;;23.00;94.00;;;;;;4319491;33;44232;-77
2022/05/19 09:52:07;;;;;;;;;;;23.00;93.80;;;;;;4332631;33;44829;-78
2022/05/19 09:54:34;;;;;;;;;;;23.10;94.10;;;;;;4319435;33;42074;-77
2022/05/19 09:57:11;;;;;;;;;;;23.10;94.10;;;;;;4332172;33;42850;-77
2022/05/19 09:59:45;;;;;;;;;;;23.10;94.10;;;;;;4332577;33;45782;-78
2022/05/19 10:02:18;;;;;;;;;;;23.10;94.20;;;;;;4316673;33;43095;-78
2022/05/19 10:04:57;;;;;;;;;;;23.10;94.00;;;;;;4316104;33;44095;-77
2022/05/19 10:07:31;;;;;;;;;;;23.20;94.40;;;;;;4318636;33;19994;-77
2022/05/19 10:10:04;;;;;;;;;;;23.20;94.40;;;;;;4316632;33;43049;-77
2022/05/19 10:12:42;;;;;;;;;;;23.20;94.60;;;;;;4317537;33;42539;-78
2022/05/19 10:15:16;;;;;;;;;;;23.30;94.70;;;;;;4316672;33;43854;-76
2022/05/19 10:17:50;;;;;;;;;;;23.30;94.10;;;;;;4317299;33;43104;-77
2022/05/19 10:20:18;;;;;;;;;;;23.30;93.90;;;;;;4316274;33;42653;-76
2022/05/19 10:23:24;;;;;;;;;;;23.30;93.90;;;;;;4317568;33;46025;-76
2022/05/19 10:26:10;;;;;;;;;;;23.40;94.00;;;;;;4317455;33;43273;-76
2022/05/19 10:31:55;;;;;;;;;;;23.40;93.80;;;;;;4317601;33;43201;-78
2022/05/19 10:34:37;;;;;;;;;;;23.50;93.80;;;;;;4316041;33;42517;-77
2022/05/19 10:37:07;;;;;;;;;;;23.50;93.60;;;;;;4317525;33;43646;-77
2022/05/19 10:39:50;;;;;;;;;;;23.50;93.50;;;;;;4315572;33;45045;-77
2022/05/19 10:42:21;;;;;;;;;;;23.50;93.70;;;;;;4316454;33;44196;-78
2022/05/19 10:44:48;;;;;;;;;;;23.50;93.70;;;;;;4317330;33;43920;-77
2022/05/19 10:47:24;;;;;;;;;;;23.60;93.70;;;;;;4316771;33;43591;-76
2022/05/19 10:50:28;;;;;;;;;;;23.60;94.00;;;;;;4315639;33;44333;-77
2022/05/19 10:53:01;;;;;;;;;;;23.60;94.10;;;;;;4271444;33;43651;-76
2022/05/19 10:55:47;;;;;;;;;;;23.70;94.10;;;;;;4309474;33;41948;-77
2022/05/19 10:58:16;;;;;;;;;;;23.70;93.30;;;;;;4317200;33;43556;-77
2022/05/19 11:01:03;;;;;;;;;;;23.80;93.50;;;;;;4317018;33;43315;-77
2022/05/19 11:04:01;;;;;;;;;;;23.80;93.50;;;;;;4329873;33;43867;-77
2022/05/19 11:06:51;;;;;;;;;;;23.90;93.30;;;;;;4293469;33;43058;-78
2022/05/19 11:09:34;;;;;;;;;;;23.90;93.60;;;;;;4331163;33;43921;-76
2022/05/19 11:12:01;;;;;;;;;;;24.00;93.90;;;;;;4318429;33;43019;-77
2022/05/19 11:15:09;;;;;;;;;;;24.00;93.90;;;;;;4318721;33;43021;-78
2022/05/19 11:17:46;;;;;;;;;;;24.10;94.10;;;;;;4285278;33;44036;-77
2022/05/19 11:20:17;;;;;;;;;;;24.10;94.20;;;;;;4325910;33;42522;-76
2022/05/19 11:22:53;;;;;;;;;;;24.10;94.20;;;;;;4318575;33;43088;-76
2022/05/19 11:28:41;;;;;;;;;;;24.20;94.30;;;;;;4330908;33;43059;-76
2022/05/19 11:31:19;;;;;;;;;;;24.30;94.40;;;;;;4321320;33;43940;-76
2022/05/19 11:33:49;;;;;;;;;;;24.30;94.40;;;;;;4330695;33;43660;-77
2022/05/19 11:36:36;;;;;;;;;;;24.30;94.30;;;;;;4330650;33;44317;-78
2022/05/19 11:39:11;;;;;;;;;;;24.40;94.20;;;;;;4331379;33;20057;-77
2022/05/19 11:41:39;;;;;;;;;;;24.40;94.20;;;;;;4330895;33;42093;-77
2022/05/19 11:44:06;;;;;;;;;;;24.40;94.30;;;;;;4330845;33;43006;-78
2022/05/19 11:46:59;;;;;;;;;;;24.40;93.60;;;;;;4330495;33;43872;-77
2022/05/19 11:55:50;;;;;;;;;;;24.20;94.20;;;;;;4313206;33;42442;-77
2022/05/19 11:58:24;;;;;;;;;;;24.10;94.30;;;;;;4317645;33;44522;-76
2022/05/19 12:01:23;;;;;;;;;;;24.00;95.00;;;;;;4317729;33;42727;-77
2022/05/19 12:04:12;;;;;;;;;;;23.90;95.90;;;;;;4330811;33;43424;-77
2022/05/19 12:07:04;;;;;;;;;;;23.80;96.60;;;;;;4330972;33;44085;-78
2022/05/19 12:09:47;;;;;;;;;;;23.70;96.60;;;;;;4315681;33;20362;-77
2022/05/19 12:12:31;;;;;;;;;;;23.50;96.70;;;;;;4330756;33;43699;-79
2022/05/19 12:15:12;;;;;;;;;;;23.40;96.80;;;;;;4318000;33;43967;-77
2022/05/19 12:17:51;;;;;;;;;;;23.30;97.00;;;;;;4330746;33;43327;-77
2022/05/19 12:20:40;;;;;;;;;;;23.30;97.50;;;;;;4330532;33;43170;-76
2022/05/19 12:23:36;;;;;;;;;;;23.20;97.70;;;;;;4330115;33;44132;-76
2022/05/19 12:26:28;;;;;;;;;;;23.20;97.70;;;;;;4330653;33;43485;-78
2022/05/19 12:29:16;;;;;;;;;;;23.10;97.60;;;;;;4316938;33;43409;-76
2022/05/19 12:32:03;;;;;;;;;;;23.10;97.60;;;;;;4317514;33;43720;-76
2022/05/19 12:34:56;;;;;;;;;;;23.10;97.70;;;;;;4316927;33;42113;-76
2022/05/19 12:37:38;;;;;;;;;;;23.00;97.80;;;;;;4330518;33;45862;-76
2022/05/19 12:40:44;;;;;;;;;;;23.00;97.90;;;;;;4318279;33;20362;-75
2022/05/19 12:43:33;;;;;;;;;;;23.00;97.90;;;;;;4330606;33;43679;-77
2022/05/19 12:46:08;;;;;;;;;;;23.00;98.20;;;;;;4316851;33;43474;-76
2022/05/19 12:48:36;;;;;;;;;;;23.00;98.10;;;;;;4330636;33;43768;-76
2022/05/19 12:51:15;;;;;;;;;;;23.00;98.20;;;;;;4330578;33;44334;-76
2022/05/19 12:54:12;;;;;;;;;;;23.00;98.20;;;;;;4330320;33;42641;-76
2022/05/19 12:56:44;;;;;;;;;;;22.90;98.10;;;;;;4316927;33;42493;-76
2022/05/19 12:59:29;;;;;;;;;;;22.90;98.00;;;;;;4317102;33;43460;-76
2022/05/19 13:02:13;;;;;;;;;;;22.90;98.00;;;;;;4329992;33;43073;-77
2022/05/19 13:04:51;;;;;;;;;;;22.90;98.00;;;;;;4320340;33;43969;-77
2022/05/19 13:07:38;;;;;;;;;;;22.90;97.90;;;;;;4333200;33;43517;-76
2022/05/19 13:10:15;;;;;;;;;;;22.90;97.90;;;;;;4320596;33;20451;-77
2022/05/19 13:12:51;;;;;;;;;;;22.90;97.80;;;;;;4333276;33;43014;-77
2022/05/19 13:15:25;;;;;;;;;;;22.90;97.90;;;;;;4320351;33;43380;-77
2022/05/19 13:17:53;;;;;;;;;;;22.90;98.00;;;;;;4333080;33;45642;-77
2022/05/19 13:20:26;;;;;;;;;;;22.90;97.90;;;;;;4332702;33;43726;-76
2022/05/19 13:23:25;;;;;;;;;;;22.90;98.00;;;;;;4332430;33;42953;-76
2022/05/19 13:25:56;;;;;;;;;;;22.90;98.20;;;;;;4333046;33;43673;-76
2022/05/19 13:31:24;;;;;;;;;;;22.80;98.30;;;;;;4332832;33;43270;-76
2022/05/19 13:33:57;;;;;;;;;;;22.90;98.40;;;;;;4332861;33;43738;-76
2022/05/19 13:36:33;;;;;;;;;;;22.80;98.10;;;;;;4319147;33;42843;-76
2022/05/19 13:39:39;;;;;;;;;;;22.80;98.20;;;;;;4332834;33;45841;-76
2022/05/19 13:42:14;;;;;;;;;;;22.80;98.20;;;;;;4332682;33;43473;-77
2022/05/19 13:44:53;;;;;;;;;;;22.80;98.30;;;;;;4319732;33;44179;-77
2022/05/19 13:47:22;;;;;;;;;;;22.80;98.40;;;;;;4332883;33;43310;-76
2022/05/19 13:50:03;;;;;;;;;;;22.80;98.70;;;;;;4332060;33;44314;-77
2022/05/19 13:52:44;;;;;;;;;;;22.80;98.50;;;;;;4332634;33;43745;-76
2022/05/19 13:55:31;;;;;;;;;;;22.80;98.40;;;;;;4332533;33;43966;-76
2022/05/19 13:58:02;;;;;;;;;;;22.80;98.40;;;;;;4319352;33;45983;-76
2022/05/19 14:00:33;;;;;;;;;;;22.80;98.50;;;;;;4319413;33;43201;-76
2022/05/19 14:03:04;;;;;;;;;;;22.80;98.50;;;;;;4318736;33;43753;-77
2022/05/19 14:05:34;;;;;;;;;;;22.80;98.50;;;;;;4319270;33;43250;-77
2022/05/19 14:08:10;;;;;;;;;;;22.90;98.40;;;;;;4332168;33;42927;-77
2022/05/19 14:10:58;;;;;;;;;;;22.90;98.50;;;;;;4332348;33;45806;-76
2022/05/19 14:13:29;;;;;;;;;;;22.90;98.40;;;;;;4318848;33;41932;-77
2022/05/19 14:15:56;;;;;;;;;;;22.90;98.30;;;;;;4332318;33;45797;-76
2022/05/19 14:18:33;;;;;;;;;;;22.90;98.20;;;;;;4331761;33;42518;-76
2022/05/19 14:21:05;;;;;;;;;;;22.90;98.40;;;;;;4318487;33;43848;-76
2022/05/19 14:23:53;;;;;;;;;;;22.90;98.70;;;;;;4332258;33;43195;-76
2022/05/19 14:26:25;;;;;;;;;;;22.90;98.70;;;;;;4324198;33;42580;-76
2022/05/19 14:28:57;;;;;;;;;;;22.90;98.40;;;;;;4318936;33;43631;-77
2022/05/19 14:31:31;;;;;;;;;;;23.00;98.60;;;;;;4319091;33;43199;-76
2022/05/19 14:34:09;;;;;;;;;;;23.00;98.50;;;;;;4332155;33;43816;-76
2022/05/19 14:36:44;;;;;;;;;;;23.00;98.50;;;;;;4318793;33;42636;-77
2022/05/19 14:39:24;;;;;;;;;;;23.00;98.60;;;;;;4331768;33;42581;-76
2022/05/19 14:44:40;;;;;;;;;;;23.10;98.60;;;;;;4332269;33;20119;-76
2022/05/19 14:47:15;;;;;;;;;;;23.10;98.80;;;;;;4318635;33;43474;-76
2022/05/19 14:49:45;;;;;;;;;;;23.10;98.50;;;;;;4331599;33;42895;-76
2022/05/19 14:52:15;;;;;;;;;;;23.10;98.70;;;;;;4331182;33;45049;-76
2022/05/19 14:54:43;;;;;;;;;;;23.20;98.60;;;;;;4318094;33;42852;-76
2022/05/19 14:57:14;;;;;;;;;;;23.20;98.80;;;;;;4331503;33;42750;-77
2022/05/19 14:59:55;;;;;;;;;;;23.20;98.80;;;;;;4331201;33;43713;-77
2022/05/19 15:02:29;;;;;;;;;;;23.20;98.80;;;;;;4331048;33;43016;-76
2022/05/19 15:04:56;;;;;;;;;;;23.20;98.60;;;;;;4331268;33;42697;-77
2022/05/19 15:07:23;;;;;;;;;;;23.20;98.50;;;;;;4331160;33;43698;-76
2022/05/19 15:09:52;;;;;;;;;;;23.30;98.80;;;;;;4331074;33;42941;-76
2022/05/19 15:12:23;;;;;;;;;;;23.30;98.80;;;;;;4331391;33;43277;-76
2022/05/19 15:14:50;;;;;;;;;;;23.30;98.80;;;;;;4318794;33;20001;-76
2022/05/19 15:17:18;;;;;;;;;;;23.30;98.70;;;;;;4330869;33;43991;-76
2022/05/19 15:19:48;;;;;;;;;;;23.30;98.70;;;;;;4331139;33;42156;-76
2022/05/19 15:22:16;;;;;;;;;;;23.30;98.60;;;;;;4318185;33;43903;-77
2022/05/19 15:24:53;;;;;;;;;;;23.30;98.70;;;;;;4317690;33;44036;-76
2022/05/19 15:27:22;;;;;;;;;;;23.30;98.60;;;;;;4331709;33;44218;-77